createdAt,value
2017-10-23T00:02:35.296Z,21.27
2017-10-23T00:17:34.495Z,20.23
2017-10-23T00:32:35.910Z,21.23
2017-10-23T00:47:34.931Z,21.30
2017-10-23T01:02:34.913Z,20.10
2017-10-23T01:17:36.892Z,17.77
2017-10-23T01:32:34.279Z,16.20
2017-10-23T01:47:35.213Z,15.83
2017-10-23T02:02:36.648Z,16.17
2017-10-23T02:17:35.148Z,15.40
2017-10-23T02:32:34.588Z,15.63
2017-10-23T02:47:36.538Z,15.77
2017-10-23T03:02:36.511Z,15.50
2017-10-23T03:17:34.462Z,16.20
2017-10-23T03:32:38.657Z,16.00
2017-10-23T03:47:34.308Z,15.80
2017-10-23T04:02:36.275Z,19.23
2017-10-23T04:17:35.298Z,19.03
2017-10-23T04:32:35.140Z,18.30
2017-10-23T04:47:35.135Z,17.50
2017-10-23T05:02:37.107Z,18.87
2017-10-23T05:17:36.024Z,18.77
2017-10-23T05:32:34.442Z,20.20
2017-10-23T05:47:35.457Z,18.10
2017-10-23T06:02:34.322Z,18.13
2017-10-23T06:17:34.291Z,20.67
2017-10-23T06:32:36.727Z,19.63
2017-10-23T06:47:34.662Z,17.60
2017-10-23T07:02:34.723Z,15.97
2017-10-23T07:17:34.577Z,17.83
2017-10-23T07:32:37.011Z,19.33
2017-10-23T07:47:35.069Z,20.93
2017-10-23T08:02:36.929Z,22.03
2017-10-23T08:17:34.334Z,19.20
2017-10-23T08:32:34.294Z,18.70
2017-10-23T08:47:35.215Z,18.30
2017-10-23T09:02:36.190Z,17.57
2017-10-23T09:17:35.135Z,18.43
2017-10-23T09:32:35.105Z,20.67
2017-10-23T09:47:34.531Z,21.20
2017-10-23T10:02:35.438Z,22.80
2017-10-23T10:17:34.453Z,20.77
2017-10-23T10:32:34.846Z,20.13
2017-10-23T10:47:36.849Z,20.63
2017-10-23T11:02:34.759Z,17.80
2017-10-23T11:17:34.749Z,17.80
2017-10-23T11:32:34.614Z,20.90
2017-10-23T11:47:35.953Z,22.87
2017-10-23T12:02:34.560Z,21.60
2017-10-23T12:17:34.985Z,20.90
2017-10-23T12:32:36.434Z,22.73
2017-10-23T12:47:34.310Z,24.67
2017-10-23T13:02:34.469Z,26.50
2017-10-23T13:17:34.198Z,27.10
2017-10-23T13:32:37.401Z,26.70
2017-10-23T13:47:34.822Z,23.50
2017-10-23T14:02:35.648Z,29.43
2017-10-23T14:17:34.533Z,26.27
2017-10-23T14:32:34.980Z,21.00
2017-10-23T14:47:34.969Z,19.17
2017-10-23T15:02:37.030Z,21.23
2017-10-23T15:17:41.412Z,27.20
2017-10-23T15:32:34.202Z,26.50
2017-10-23T15:47:35.186Z,26.37
2017-10-23T16:02:37.153Z,24.17
2017-10-23T16:17:35.113Z,26.13
2017-10-23T16:32:34.516Z,24.67
2017-10-23T16:47:34.537Z,26.57
2017-10-23T17:02:36.434Z,27.50
2017-10-23T17:17:34.517Z,45.93
2017-10-23T17:32:37.893Z,8.50
2017-10-23T17:47:34.869Z,4.33
2017-10-23T18:02:44.407Z,3.40
2017-10-23T18:17:38.440Z,2.83
2017-10-23T18:32:45.424Z,2.80
2017-10-23T18:47:41.057Z,3.80
2017-10-23T19:02:37.125Z,2.53
2017-10-23T19:17:36.993Z,2.20
2017-10-23T19:32:36.486Z,2.30
2017-10-23T19:47:37.646Z,2.30
2017-10-23T20:02:36.533Z,2.40
2017-10-23T20:17:39.399Z,1.90
2017-10-23T20:32:34.813Z,1.93
2017-10-23T20:47:34.690Z,3.00
2017-10-23T21:02:36.673Z,1.50
2017-10-23T21:17:37.305Z,1.60
2017-10-23T21:32:35.059Z,1.50
2017-10-23T21:47:34.989Z,1.33
2017-10-23T22:02:34.950Z,1.20
2017-10-23T22:17:34.865Z,1.47
2017-10-23T22:32:37.367Z,1.40
2017-10-23T22:47:36.264Z,1.60
2017-10-23T23:02:33.773Z,1.30
2017-10-23T23:17:34.200Z,1.40
2017-10-23T23:32:36.609Z,1.30
2017-10-23T23:47:36.565Z,1.17
